Time;durP1;ratioP1;P1;durP2;ratioP2;P2;SDS_P1;SDS_P2;PMS_P1;PMS_P2;Temp;Humidity;BMP_temperature;BMP_pressure;BME280_temperature;BME280_humidity;BME280_pressure;Samples;Min_cycle;Max_cycle;Signal;HPM_P1;HPM_P2
2022/06/02 00:00:59;;;;;;;7.50;6.78;;;24.70;1.00;;;;;;5009723;28;20038;-44
2022/06/02 00:03:33;;;;;;;7.60;6.90;;;24.80;1.00;;;;;;5002832;28;20104;-43
2022/06/02 00:06:46;;;;;;;7.97;7.28;;;24.70;1.00;;;;;;5013068;28;20017;-43
2022/06/02 00:09:25;;;;;;;9.63;8.73;;;24.60;1.00;;;;;;4945701;28;20414;-43
2022/06/02 00:12:06;;;;;;;9.02;8.23;;;24.60;1.00;;;;;;4939694;29;20117;-43
2022/06/02 00:15:00;;;;;;;9.23;8.52;;;24.60;1.00;;;;;;4995257;28;20041;-43
2022/06/02 00:17:47;;;;;;;9.73;8.73;;;24.50;1.00;;;;;;5011846;28;20054;-44
2022/06/02 00:20:40;;;;;;;10.68;9.27;;;24.50;1.00;;;;;;5010971;28;20097;-48
2022/06/02 00:23:17;;;;;;;8.98;8.18;;;24.40;1.00;;;;;;5011888;28;20137;-43
2022/06/02 00:25:52;;;;;;;9.50;8.65;;;24.50;1.00;;;;;;5012979;28;20029;-43
2022/06/02 00:28:31;;;;;;;9.32;8.55;;;24.50;1.00;;;;;;5011762;28;20073;-43
2022/06/02 00:31:04;;;;;;;9.75;8.85;;;24.40;1.00;;;;;;5011701;28;20118;-44
2022/06/02 00:34:10;;;;;;;9.80;8.35;;;24.30;1.00;;;;;;5010854;28;20026;-44
2022/06/02 00:36:42;;;;;;;9.82;8.93;;;24.30;1.00;;;;;;4999519;28;20112;-44
2022/06/02 00:39:08;;;;;;;9.98;8.68;;;24.20;1.00;;;;;;5011907;28;20444;-45
2022/06/02 00:42:15;;;;;;;8.73;7.93;;;24.10;1.00;;;;;;5012743;28;20057;-44
2022/06/02 00:44:51;;;;;;;8.95;7.97;;;24.20;1.00;;;;;;4965500;28;20073;-45
2022/06/02 00:47:26;;;;;;;9.43;8.55;;;24.10;1.00;;;;;;5009952;28;20092;-43
2022/06/02 00:50:06;;;;;;;11.70;8.52;;;23.90;1.00;;;;;;5012341;28;20034;-47
2022/06/02 00:52:36;;;;;;;9.00;8.20;;;24.00;1.00;;;;;;5016254;28;20117;-45
2022/06/02 00:58:30;;;;;;;8.52;7.72;;;24.10;1.00;;;;;;5006233;28;20041;-44
2022/06/02 01:01:12;;;;;;;9.10;8.35;;;24.10;1.00;;;;;;5014911;28;20044;-43
2022/06/02 01:03:46;;;;;;;8.73;8.02;;;24.10;1.00;;;;;;5014879;28;20029;-44
2022/06/02 01:06:23;;;;;;;8.63;7.78;;;24.10;1.00;;;;;;5012795;28;20484;-44
2022/06/02 01:09:31;;;;;;;9.00;7.90;;;24.00;1.00;;;;;;5014433;28;20487;-43
2022/06/02 01:12:32;;;;;;;7.95;7.03;;;23.80;1.00;;;;;;5015800;28;20048;-45
2022/06/02 01:15:32;;;;;;;12.02;8.13;;;23.80;1.00;;;;;;5013792;28;20400;-43
2022/06/02 01:18:04;;;;;;;8.88;7.93;;;23.70;1.00;;;;;;5015040;28;20115;-43
2022/06/02 01:20:34;;;;;;;8.18;7.47;;;23.80;1.00;;;;;;5014109;28;20022;-45
2022/06/02 01:23:26;;;;;;;8.70;7.90;;;23.60;1.00;;;;;;5015229;28;20458;-44
2022/06/02 01:26:10;;;;;;;8.75;7.95;;;23.70;1.00;;;;;;4966745;28;20390;-46
2022/06/02 01:29:13;;;;;;;9.57;6.30;;;23.70;1.00;;;;;;5014104;28;20041;-43
2022/06/02 01:31:49;;;;;;;8.77;7.95;;;23.70;1.00;;;;;;5011936;28;20030;-46
2022/06/02 01:34:26;;;;;;;9.45;7.75;;;23.50;1.00;;;;;;5014560;28;20052;-43
2022/06/02 01:37:06;;;;;;;8.30;7.53;;;23.40;1.00;;;;;;5015438;28;20026;-48
2022/06/02 01:39:48;;;;;;;7.72;7.03;;;23.70;1.00;;;;;;5014550;28;20026;-44
2022/06/02 01:42:29;;;;;;;9.48;7.47;;;23.60;1.00;;;;;;5013263;28;20033;-46
2022/06/02 01:45:13;;;;;;;8.73;7.75;;;23.60;1.00;;;;;;5007443;28;20030;-45
2022/06/02 01:47:42;;;;;;;8.43;7.72;;;23.60;1.00;;;;;;5003301;28;20045;-46
2022/06/02 01:50:19;;;;;;;8.45;7.75;;;23.40;1.00;;;;;;5014202;28;20451;-47
2022/06/02 01:53:05;;;;;;;7.78;7.15;;;23.50;1.00;;;;;;5015412;28;20026;-45
2022/06/02 01:56:01;;;;;;;8.68;7.60;;;23.50;1.00;;;;;;5011788;28;20070;-45
2022/06/02 01:58:36;;;;;;;8.18;7.47;;;23.40;1.00;;;;;;5009752;28;20026;-42
2022/06/02 02:01:13;;;;;;;8.77;7.22;;;23.30;1.00;;;;;;5010983;28;20140;-48
2022/06/02 02:04:10;;;;;;;7.72;7.13;;;23.20;1.00;;;;;;5006845;28;20117;-43
2022/06/02 02:06:50;;;;;;;8.80;7.97;;;23.20;1.00;;;;;;5007646;28;20472;-44
2022/06/02 02:09:39;;;;;;;9.02;7.85;;;23.10;1.00;;;;;;5014110;28;20061;-45
2022/06/02 02:12:10;;;;;;;8.52;7.32;;;23.10;1.00;;;;;;5009574;28;20085;-44
2022/06/02 02:15:04;;;;;;;7.88;7.10;;;23.10;1.00;;;;;;5003815;28;20034;-48
2022/06/02 02:17:53;;;;;;;7.95;7.35;;;23.10;1.00;;;;;;5013350;28;20038;-43
2022/06/02 02:20:27;;;;;;;7.88;7.28;;;22.80;1.00;;;;;;5013669;28;20448;-43
2022/06/02 02:23:26;;;;;;;;;;;22.80;1.00;;;;;;5015243;28;20310;-45
2022/06/02 02:26:06;;;;;;;8.75;7.70;;;23.00;1.00;;;;;;4980987;28;20335;-43
2022/06/02 02:28:55;;;;;;;7.63;6.80;;;23.10;1.00;;;;;;5014034;28;20030;-43
2022/06/02 02:31:46;;;;;;;7.60;6.90;;;23.10;1.00;;;;;;5005856;28;20026;-45
2022/06/02 02:34:31;;;;;;;7.80;7.20;;;23.20;1.00;;;;;;5012651;28;20084;-45
2022/06/02 02:37:09;;;;;;;8.10;7.40;;;23.00;1.00;;;;;;5014334;28;20444;-44
2022/06/02 02:39:54;;;;;;;8.85;8.05;;;23.20;1.00;;;;;;5009219;28;20026;-45
2022/06/02 02:42:37;;;;;;;7.85;7.22;;;23.10;1.00;;;;;;5010187;28;20026;-46
2022/06/02 02:45:25;;;;;;;7.70;7.00;;;23.00;1.00;;;;;;5013294;28;20030;-45
2022/06/02 02:48:04;;;;;;;8.00;7.30;;;23.00;1.00;;;;;;4996813;28;20469;-43
2022/06/02 02:50:38;;;;;;;7.90;7.18;;;22.90;1.00;;;;;;4994637;28;20026;-43
2022/06/02 02:53:14;;;;;;;7.95;7.15;;;23.00;1.00;;;;;;4999938;28;20496;-43
2022/06/02 02:56:08;;;;;;;8.52;7.82;;;22.90;1.00;;;;;;5013623;28;20061;-43
2022/06/02 02:58:40;;;;;;;;;;;22.80;1.00;;;;;;4995749;28;20030;-44
2022/06/02 03:01:18;;;;;;;8.57;7.78;;;22.90;1.00;;;;;;5013003;28;20529;-45
2022/06/02 03:03:52;;;;;;;11.50;8.38;;;22.80;1.00;;;;;;5012804;28;20088;-46
2022/06/02 03:06:20;;;;;;;;;;;22.80;1.00;;;;;;5010918;28;20044;-44
2022/06/02 03:09:05;;;;;;;8.93;7.97;;;22.70;1.00;;;;;;5013650;28;19920;-47
2022/06/02 03:11:39;;;;;;;9.23;8.25;;;22.60;1.00;;;;;;5009140;28;20055;-43
2022/06/02 03:14:26;;;;;;;10.48;9.60;;;22.50;1.00;;;;;;5013090;28;20034;-43
2022/06/02 03:17:02;;;;;;;9.45;8.63;;;22.50;1.00;;;;;;5000403;28;20444;-44
2022/06/02 03:19:45;;;;;;;11.05;9.98;;;22.50;1.00;;;;;;5012625;28;20060;-45
2022/06/02 03:22:24;;;;;;;9.60;8.80;;;22.30;1.00;;;;;;5012401;28;20427;-46
2022/06/02 03:25:01;;;;;;;10.40;9.50;;;22.30;1.00;;;;;;5012683;28;20420;-44
2022/06/02 03:27:53;;;;;;;10.60;9.60;;;22.30;1.00;;;;;;5013668;28;20443;-45
2022/06/02 03:30:20;;;;;;;10.15;9.23;;;22.50;1.00;;;;;;5012519;28;20503;-48
2022/06/02 03:33:11;;;;;;;9.65;8.75;;;22.60;1.00;;;;;;5013392;28;20022;-48
2022/06/02 03:36:01;;;;;;;9.57;8.77;;;22.60;1.00;;;;;;5012464;28;20022;-43
2022/06/02 03:38:38;;;;;;;10.55;9.60;;;22.60;1.00;;;;;;5012634;28;20032;-44
2022/06/02 03:41:23;;;;;;;9.35;8.55;;;22.40;1.00;;;;;;5004097;28;20030;-45
2022/06/02 03:44:08;;;;;;;9.35;8.38;;;22.40;1.00;;;;;;5013258;28;20542;-47
2022/06/02 03:46:34;;;;;;;9.65;8.75;;;22.50;1.00;;;;;;4997492;28;20022;-46
2022/06/02 03:49:29;;;;;;;9.73;8.80;;;22.50;1.00;;;;;;5011377;28;20053;-45
2022/06/02 03:52:07;;;;;;;;;;;22.60;1.00;;;;;;5008076;28;20041;-43
2022/06/02 03:54:46;;;;;;;10.02;9.13;;;22.60;1.00;;;;;;5012455;28;20252;-45
2022/06/02 03:57:28;;;;;;;8.55;7.68;;;22.60;1.00;;;;;;5013114;28;20072;-46
2022/06/02 04:00:43;;;;;;;10.48;8.95;;;22.60;1.00;;;;;;5012280;28;20033;-45
2022/06/02 04:03:15;;;;;;;10.48;8.65;;;22.70;1.00;;;;;;4998027;28;20061;-48
2022/06/02 04:06:01;;;;;;;9.57;8.73;;;22.50;1.00;;;;;;5012289;28;20038;-43
2022/06/02 04:08:29;;;;;;;9.30;8.50;;;22.60;1.00;;;;;;5011073;28;20144;-48
2022/06/02 04:11:27;;;;;;;10.02;9.00;;;22.70;1.00;;;;;;5012161;28;20030;-45
2022/06/02 04:14:11;;;;;;;9.43;8.57;;;22.60;1.00;;;;;;5012956;28;20476;-46
2022/06/02 04:16:52;;;;;;;9.50;8.52;;;22.50;1.00;;;;;;5011591;28;20053;-43
2022/06/02 04:22:24;;;;;;;11.38;8.35;;;22.70;1.00;;;;;;5007503;28;20044;-49
2022/06/02 04:25:17;;;;;;;9.82;8.98;;;22.70;1.00;;;;;;5015747;28;20030;-43
2022/06/02 04:28:09;;;;;;;8.73;8.02;;;22.60;1.00;;;;;;5016545;28;20049;-44
2022/06/02 04:30:56;;;;;;;10.20;9.25;;;22.70;1.00;;;;;;5005474;28;20491;-49
2022/06/02 04:33:32;;;;;;;10.35;9.30;;;22.60;1.00;;;;;;5017075;28;20037;-48
2022/06/02 04:36:11;;;;;;;9.73;8.73;;;22.60;1.00;;;;;;5016275;28;20076;-45
2022/06/02 04:39:06;;;;;;;9.38;8.57;;;22.70;1.00;;;;;;5015627;28;20030;-45
2022/06/02 04:42:00;;;;;;;9.73;8.82;;;22.70;1.00;;;;;;5015542;28;20563;-44
2022/06/02 04:45:03;;;;;;;10.18;9.23;;;22.70;1.00;;;;;;4988424;28;20030;-44
2022/06/02 04:47:40;;;;;;;10.82;9.80;;;22.80;1.00;;;;;;5016049;28;20057;-45
2022/06/02 04:50:36;;;;;;;10.50;9.60;;;22.70;1.00;;;;;;5010771;28;20516;-43
2022/06/02 04:53:19;;;;;;;11.35;10.10;;;22.80;1.00;;;;;;5005847;28;20045;-44
2022/06/02 04:55:51;;;;;;;10.80;9.80;;;22.70;1.00;;;;;;5015462;28;20054;-44
2022/06/02 04:58:31;;;;;;;11.13;10.13;;;22.80;1.00;;;;;;5016394;28;20034;-45
2022/06/02 05:01:24;;;;;;;10.45;9.50;;;22.90;1.00;;;;;;5015210;28;20026;-46
2022/06/02 05:04:02;;;;;;;10.90;9.90;;;23.00;1.00;;;;;;5016198;28;20025;-45
2022/06/02 05:06:41;;;;;;;10.63;9.63;;;23.00;1.00;;;;;;5015307;28;20040;-43
2022/06/02 05:10:02;;;;;;;10.68;9.57;;;23.10;1.00;;;;;;5014058;28;20119;-45
2022/06/02 05:12:52;;;;;;;10.25;9.35;;;23.00;1.00;;;;;;4992250;28;20439;-43
2022/06/02 05:15:58;;;;;;;9.63;8.82;;;23.00;1.00;;;;;;5015088;28;20037;-45
2022/06/02 05:18:44;;;;;;;10.73;9.73;;;23.00;1.00;;;;;;4974872;28;20127;-45
2022/06/02 05:21:28;;;;;;;10.07;9.10;;;23.00;1.00;;;;;;5014875;28;20026;-45
2022/06/02 05:24:16;;;;;;;11.38;10.25;;;22.90;1.00;;;;;;5016405;28;20088;-44
2022/06/02 05:26:48;;;;;;;9.95;8.90;;;23.00;1.00;;;;;;5008986;28;20037;-42
2022/06/02 05:29:28;;;;;;;10.63;9.57;;;23.10;1.00;;;;;;5005714;28;20481;-43
2022/06/02 05:32:20;;;;;;;10.63;9.43;;;23.10;1.00;;;;;;5014420;28;20022;-43
2022/06/02 05:35:13;;;;;;;10.40;9.07;;;23.20;1.00;;;;;;5014930;28;20034;-43
2022/06/02 05:37:51;;;;;;;11.02;10.02;;;23.20;1.00;;;;;;5014613;28;20391;-46
2022/06/02 05:40:41;;;;;;;10.90;9.77;;;23.30;1.00;;;;;;5015649;28;20515;-45
2022/06/02 05:43:39;;;;;;;10.27;9.27;;;23.30;1.00;;;;;;5014335;28;20025;-43
2022/06/02 05:46:14;;;;;;;11.95;10.82;;;23.20;1.00;;;;;;5015097;28;20399;-44
2022/06/02 05:48:49;;;;;;;11.05;9.90;;;23.30;1.00;;;;;;5014596;28;20046;-44
2022/06/02 05:51:21;;;;;;;11.80;10.40;;;23.20;1.00;;;;;;5014493;28;20029;-45
2022/06/02 05:54:10;;;;;;;10.85;9.85;;;23.20;1.00;;;;;;5010850;28;20059;-50
2022/06/02 05:56:51;;;;;;;11.32;10.27;;;23.20;1.00;;;;;;5014699;28;20112;-44
2022/06/02 05:59:20;;;;;;;11.70;9.75;;;23.30;1.00;;;;;;5015214;28;20360;-48
2022/06/02 06:02:12;;;;;;;11.30;10.20;;;23.20;1.00;;;;;;5014183;28;20452;-45
2022/06/02 06:04:56;;;;;;;12.73;9.73;;;23.30;1.00;;;;;;5010700;28;20092;-43
2022/06/02 06:07:46;;;;;;;11.35;10.38;;;23.30;1.00;;;;;;5011445;28;20104;-43
2022/06/02 06:13:21;;;;;;;11.70;10.40;;;23.10;1.00;;;;;;5010048;28;20088;-44
2022/06/02 06:15:53;;;;;;;12.43;11.13;;;23.20;1.00;;;;;;5014000;28;20030;-46
2022/06/02 06:18:31;;;;;;;12.25;11.00;;;23.00;1.00;;;;;;5013593;28;20117;-46
2022/06/02 06:21:13;;;;;;;12.93;10.02;;;23.20;1.00;;;;;;5014834;28;20033;-44
2022/06/02 06:23:56;;;;;;;12.00;11.00;;;23.20;1.00;;;;;;5000647;28;20034;-43
2022/06/02 06:26:40;;;;;;;13.10;11.90;;;23.30;1.00;;;;;;5014880;28;20109;-48
2022/06/02 06:29:34;;;;;;;12.13;10.93;;;23.30;1.00;;;;;;5014013;28;20431;-46
2022/06/02 06:32:17;;;;;;;12.07;10.98;;;23.10;1.00;;;;;;5013483;28;20029;-46
2022/06/02 06:35:21;;;;;;;17.33;13.73;;;23.30;1.00;;;;;;5014626;28;20034;-44
2022/06/02 06:38:19;;;;;;;13.88;12.35;;;23.20;1.00;;;;;;4934557;29;20043;-45
2022/06/02 06:41:06;;;;;;;15.02;13.50;;;23.10;1.00;;;;;;4973951;28;20171;-45
2022/06/02 06:43:53;;;;;;;13.75;12.55;;;23.20;1.00;;;;;;5010001;28;20121;-49
2022/06/02 06:46:36;;;;;;;14.98;13.52;;;23.30;1.00;;;;;;5001298;28;20038;-43
2022/06/02 06:49:40;;;;;;;14.63;13.15;;;23.30;1.00;;;;;;5013581;28;20042;-45
2022/06/02 06:52:42;;;;;;;15.73;14.23;;;23.30;1.00;;;;;;5001483;28;20034;-42
2022/06/02 06:55:19;;;;;;;16.27;14.80;;;23.30;1.00;;;;;;5003576;28;20064;-44
2022/06/02 06:57:49;;;;;;;15.35;13.57;;;23.50;1.00;;;;;;5013015;28;20124;-47
2022/06/02 07:00:22;;;;;;;17.45;15.25;;;23.50;1.00;;;;;;5012874;28;20057;-46
2022/06/02 07:03:02;;;;;;;15.30;13.90;;;23.60;1.00;;;;;;5012988;28;20403;-43
2022/06/02 07:05:49;;;;;;;15.55;14.23;;;23.60;1.00;;;;;;5014247;28;20061;-43
2022/06/02 07:08:45;;;;;;;15.23;13.50;;;23.70;1.00;;;;;;5013071;28;20049;-43
2022/06/02 07:14:35;;;;;;;15.50;13.93;;;23.70;1.00;;;;;;5006329;28;20056;-43
2022/06/02 07:17:12;;;;;;;17.17;14.15;;;23.80;1.00;;;;;;4998340;28;20148;-45
2022/06/02 07:20:12;;;;;;;16.60;14.98;;;23.80;1.00;;;;;;5011959;28;20038;-45
2022/06/02 07:22:49;;;;;;;15.95;14.20;;;24.00;1.00;;;;;;4996209;28;20037;-47
2022/06/02 07:25:29;;;;;;;15.75;14.13;;;24.00;1.00;;;;;;5013440;28;20028;-48
2022/06/02 07:28:10;;;;;;;14.10;12.95;;;24.00;1.00;;;;;;5012291;28;20054;-47
2022/06/02 07:30:53;;;;;;;16.08;14.48;;;24.10;1.00;;;;;;5000241;28;20022;-46
2022/06/02 07:33:40;;;;;;;15.50;14.02;;;24.20;1.00;;;;;;5008485;28;20073;-44
2022/06/02 07:36:24;;;;;;;15.23;13.93;;;24.20;1.00;;;;;;5013452;28;20457;-44
2022/06/02 07:38:56;;;;;;;;;;;24.30;1.00;;;;;;5012560;28;20022;-44
2022/06/02 07:41:28;;;;;;;14.95;13.52;;;24.40;1.00;;;;;;5012824;28;19916;-44
2022/06/02 07:44:17;;;;;;;15.90;14.50;;;24.50;1.00;;;;;;5011824;28;20381;-44
2022/06/02 07:47:01;;;;;;;13.93;12.55;;;24.50;1.00;;;;;;5012199;28;20041;-44
2022/06/02 07:49:58;;;;;;;16.42;14.75;;;24.70;1.00;;;;;;5012193;28;20380;-47
2022/06/02 07:52:46;;;;;;;15.52;13.95;;;24.80;1.00;;;;;;5012147;28;20117;-46
2022/06/02 07:55:20;;;;;;;13.95;12.60;;;24.90;1.00;;;;;;5011231;28;20026;-48
2022/06/02 07:58:04;;;;;;;15.23;13.77;;;25.00;1.00;;;;;;5008109;28;20033;-43
2022/06/02 08:00:59;;;;;;;14.00;12.55;;;25.00;1.00;;;;;;5007781;28;20037;-44
2022/06/02 08:03:30;;;;;;;;;;;25.10;1.00;;;;;;5012633;28;20555;-44
2022/06/02 08:06:02;;;;;;;13.15;11.98;;;25.20;1.00;;;;;;5013397;28;19905;-44
2022/06/02 08:08:46;;;;;;;18.40;13.48;;;25.20;1.00;;;;;;5011844;28;20045;-44
2022/06/02 08:11:32;;;;;;;16.33;14.63;;;25.20;1.00;;;;;;5011145;28;20033;-44
2022/06/02 08:14:03;;;;;;;14.82;13.45;;;25.20;1.00;;;;;;5012195;28;20021;-44
2022/06/02 08:17:00;;;;;;;13.48;12.27;;;25.30;1.00;;;;;;5009067;28;20030;-46
2022/06/02 08:19:40;;;;;;;12.93;11.68;;;25.40;1.00;;;;;;5006001;28;20046;-44
2022/06/02 08:22:10;;;;;;;14.98;13.57;;;25.40;1.00;;;;;;5012732;28;20096;-44
2022/06/02 08:25:24;;;;;;;18.30;13.35;;;25.40;1.00;;;;;;5005970;28;20018;-44
2022/06/02 08:28:11;;;;;;;12.93;11.80;;;25.40;1.00;;;;;;4942902;29;20173;-47
2022/06/02 08:30:55;;;;;;;11.90;10.63;;;25.60;1.00;;;;;;4939829;29;20030;-45
2022/06/02 08:33:30;;;;;;;12.38;11.18;;;25.70;1.00;;;;;;4998737;28;20046;-47
2022/06/02 08:36:15;;;;;;;13.05;12.05;;;25.70;1.00;;;;;;5011593;28;20110;-45
2022/06/02 08:39:00;;;;;;;12.45;11.35;;;25.70;1.00;;;;;;5011859;28;20117;-44
2022/06/02 08:41:38;;;;;;;14.27;12.88;;;25.70;1.00;;;;;;5010093;28;20030;-49
2022/06/02 08:44:09;;;;;;;12.00;10.90;;;25.70;1.00;;;;;;5011639;28;20022;-45
2022/06/02 08:46:50;;;;;;;12.63;11.63;;;25.80;1.00;;;;;;5013321;28;20056;-45
2022/06/02 08:49:24;;;;;;;12.30;11.20;;;25.90;1.00;;;;;;5011142;28;20038;-43
2022/06/02 08:52:37;;;;;;;17.60;13.25;;;26.10;1.00;;;;;;5012893;28;20026;-44
2022/06/02 08:55:22;;;;;;;14.43;13.20;;;26.00;1.00;;;;;;5004226;28;20033;-44
2022/06/02 08:58:06;;;;;;;14.35;13.23;;;26.00;1.00;;;;;;4998541;28;20503;-44
2022/06/02 09:01:09;;;;;;;12.45;11.35;;;26.00;1.00;;;;;;5012567;28;20527;-44
2022/06/02 09:03:59;;;;;;;14.40;13.10;;;26.10;1.00;;;;;;5011460;28;20498;-44
2022/06/02 09:06:43;;;;;;;16.02;13.13;;;26.10;1.00;;;;;;5004270;28;20447;-43
2022/06/02 09:09:43;;;;;;;16.23;14.82;;;26.20;1.00;;;;;;5014532;28;20042;-44
2022/06/02 09:12:27;;;;;;;14.93;13.23;;;26.30;1.00;;;;;;5007532;28;20041;-45
2022/06/02 09:15:05;;;;;;;13.55;12.30;;;26.30;1.00;;;;;;5003460;28;20034;-44
2022/06/02 09:17:53;;;;;;;13.15;11.85;;;26.40;1.00;;;;;;5015099;28;20408;-47
2022/06/02 09:20:25;;;;;;;14.10;12.70;;;26.50;1.00;;;;;;5016128;28;20048;-45
2022/06/02 09:22:58;;;;;;;13.90;12.55;;;26.50;1.00;;;;;;5010670;28;20022;-44
2022/06/02 09:25:53;;;;;;;;;;;26.50;1.00;;;;;;5015989;28;20038;-45
2022/06/02 09:28:45;;;;;;;13.90;12.50;;;26.40;1.00;;;;;;5001465;28;20546;-44
2022/06/02 09:34:49;;;;;;;12.57;10.57;;;26.40;1.00;;;;;;5002063;28;20040;-46
2022/06/02 09:37:37;;;;;;;11.70;10.70;;;26.50;1.00;;;;;;5015532;28;20058;-44
2022/06/02 09:40:28;;;;;;;10.30;9.50;;;26.50;1.00;;;;;;5014820;28;20026;-44
2022/06/02 09:43:18;;;;;;;12.23;10.88;;;26.50;1.00;;;;;;5004320;28;20057;-46
2022/06/02 09:45:49;;;;;;;11.73;10.02;;;26.50;1.00;;;;;;5013527;28;20553;-44
2022/06/02 09:48:44;;;;;;;13.02;11.73;;;26.60;1.00;;;;;;5014643;28;20042;-44
2022/06/02 09:51:38;;;;;;;11.80;10.75;;;26.50;1.00;;;;;;5003505;28;20033;-47
2022/06/02 09:54:12;;;;;;;13.47;12.00;;;26.40;1.00;;;;;;5010623;28;20053;-46
2022/06/02 09:57:55;;;;;;;14.07;12.73;;;26.40;1.00;;;;;;5006488;28;20065;-44
2022/06/02 10:00:32;;;;;;;13.77;11.85;;;26.50;1.00;;;;;;5005266;28;20034;-46
2022/06/02 10:03:30;;;;;;;13.25;11.80;;;26.50;1.00;;;;;;4990020;28;20046;-44
2022/06/02 10:06:10;;;;;;;10.70;9.60;;;26.50;1.00;;;;;;5014108;28;20033;-46
2022/06/02 10:09:01;;;;;;;12.07;10.95;;;26.60;1.00;;;;;;5014228;28;20046;-46
2022/06/02 10:15:06;;;;;;;12.85;11.40;;;26.70;1.00;;;;;;5014493;28;20608;-47
2022/06/02 10:17:52;;;;;;;14.18;12.73;;;26.80;1.00;;;;;;5011271;28;20073;-45
2022/06/02 10:20:26;;;;;;;12.85;11.55;;;26.80;1.00;;;;;;5009355;28;20042;-45
2022/06/02 10:23:10;;;;;;;12.95;11.75;;;26.90;1.00;;;;;;5010898;28;20018;-44
2022/06/02 10:25:50;;;;;;;13.30;12.27;;;27.00;1.00;;;;;;5010006;28;20034;-44
2022/06/02 10:28:49;;;;;;;12.05;10.93;;;27.00;1.00;;;;;;5014578;28;20045;-46
2022/06/02 10:31:56;;;;;;;11.13;10.20;;;27.20;1.00;;;;;;5003037;28;20480;-45
2022/06/02 10:34:36;;;;;;;12.18;11.02;;;27.40;1.00;;;;;;4978154;28;20064;-46
2022/06/02 10:37:23;;;;;;;11.45;9.80;;;27.40;1.00;;;;;;5014475;28;20041;-45
2022/06/02 10:40:11;;;;;;;12.30;11.30;;;27.40;1.00;;;;;;4993823;28;20035;-44
2022/06/02 10:42:56;;;;;;;13.52;11.30;;;27.50;1.00;;;;;;5011974;28;20014;-46
2022/06/02 10:45:32;;;;;;;13.40;12.20;;;27.60;1.00;;;;;;5013634;28;20038;-47
2022/06/02 10:48:30;;;;;;;14.45;13.23;;;27.80;1.00;;;;;;5014188;28;20029;-45
2022/06/02 10:51:20;;;;;;;13.27;11.98;;;27.80;1.00;;;;;;5013207;28;20030;-48
2022/06/02 10:54:16;;;;;;;11.95;10.93;;;27.80;1.00;;;;;;5012965;28;20121;-47
2022/06/02 10:56:53;;;;;;;13.77;12.48;;;28.00;1.00;;;;;;5001867;28;20048;-46
2022/06/02 10:59:43;;;;;;;12.82;11.73;;;28.00;1.00;;;;;;5011827;28;20030;-45
2022/06/02 11:02:57;;;;;;;12.27;10.68;;;28.10;1.00;;;;;;5012011;28;20022;-46
2022/06/02 11:06:06;;;;;;;11.88;10.85;;;28.30;1.00;;;;;;4942814;28;20071;-45
2022/06/02 11:09:05;;;;;;;10.60;9.70;;;28.60;1.00;;;;;;5000632;28;20176;-45
2022/06/02 11:11:46;;;;;;;12.70;11.60;;;28.50;1.00;;;;;;5009564;28;20056;-47
2022/06/02 11:14:39;;;;;;;12.07;10.98;;;28.70;1.00;;;;;;5013094;28;20025;-51
2022/06/02 11:17:38;;;;;;;11.13;9.73;;;28.90;1.00;;;;;;5000813;28;20430;-47
2022/06/02 11:20:13;;;;;;;12.38;11.07;;;29.00;1.00;;;;;;5012238;28;20390;-47
2022/06/02 11:22:53;;;;;;;12.57;11.32;;;29.20;1.00;;;;;;5013218;28;20041;-50
2022/06/02 11:25:37;;;;;;;12.75;11.60;;;29.40;1.00;;;;;;5012730;28;20038;-47
2022/06/02 11:28:49;;;;;;;10.65;9.75;;;29.50;1.00;;;;;;5013411;28;20038;-51
2022/06/02 11:31:53;;;;;;;13.30;9.57;;;29.90;1.00;;;;;;5010822;28;20026;-51
2022/06/02 11:34:47;;;;;;;10.15;9.25;;;30.20;1.00;;;;;;4998670;28;20535;-45
2022/06/02 11:37:26;;;;;;;9.48;8.70;;;30.60;1.00;;;;;;5008836;28;20022;-48
2022/06/02 11:40:13;;;;;;;9.77;8.85;;;30.60;1.00;;;;;;5011808;28;20125;-48
2022/06/02 11:42:56;;;;;;;10.00;9.23;;;31.70;1.00;;;;;;4997298;28;20023;-47
2022/06/02 11:45:36;;;;;;;9.40;8.50;;;31.70;1.00;;;;;;5006521;28;20050;-45
2022/06/02 11:48:14;;;;;;;10.98;10.07;;;32.10;1.00;;;;;;5013401;28;20072;-46
2022/06/02 11:50:57;;;;;;;10.00;9.20;;;32.50;1.00;;;;;;5012364;28;20030;-45
2022/06/02 11:53:29;;;;;;;7.57;6.93;;;32.50;1.00;;;;;;5010813;28;20034;-46
2022/06/02 11:56:27;;;;;;;7.13;6.43;;;33.00;1.00;;;;;;5012579;28;20439;-46
2022/06/02 11:59:10;;;;;;;7.38;6.93;;;33.40;1.00;;;;;;5013177;28;20045;-45
2022/06/02 12:01:59;;;;;;;7.63;6.88;;;34.00;1.00;;;;;;5012147;28;20037;-44
2022/06/02 12:04:31;;;;;;;7.72;7.20;;;35.10;1.00;;;;;;5012157;28;20068;-50
2022/06/02 12:07:00;;;;;;;8.60;7.85;;;35.30;1.00;;;;;;5012975;28;20575;-47
2022/06/02 12:09:34;;;;;;;8.23;7.57;;;35.40;1.00;;;;;;5010582;28;20072;-48
2022/06/02 12:12:11;;;;;;;7.28;6.78;;;35.90;1.00;;;;;;5012948;28;20567;-48
2022/06/02 12:14:55;;;;;;;8.52;7.93;;;35.80;1.00;;;;;;5010386;28;20049;-49
2022/06/02 12:17:33;;;;;;;8.48;7.78;;;35.60;1.00;;;;;;5005082;28;20050;-49
2022/06/02 12:20:02;;;;;;;8.38;7.57;;;35.70;1.00;;;;;;5011100;28;20044;-45
2022/06/02 12:22:59;;;;;;;9.80;9.02;;;35.40;1.00;;;;;;5012130;28;20034;-49
2022/06/02 12:25:50;;;;;;;9.55;8.65;;;34.90;1.00;;;;;;5000518;28;20450;-47
2022/06/02 12:28:40;;;;;;;7.68;7.07;;;34.50;1.00;;;;;;5012843;28;20042;-47
2022/06/02 12:34:36;;;;;;;8.45;7.95;;;33.20;1.00;;;;;;4998563;28;20036;-47
2022/06/02 12:37:40;;;;;;;8.27;7.57;;;32.40;1.00;;;;;;5011729;28;20022;-46
2022/06/02 12:40:23;;;;;;;9.45;8.55;;;32.00;1.00;;;;;;5000252;28;20496;-45
2022/06/02 12:43:13;;;;;;;9.50;8.80;;;31.70;1.00;;;;;;5010783;28;20326;-44
2022/06/02 12:45:50;;;;;;;8.15;7.50;;;32.90;1.00;;;;;;5016809;28;20069;-46
2022/06/02 12:48:52;;;;;;;8.95;7.95;;;34.70;1.00;;;;;;5015493;28;20545;-45
2022/06/02 12:51:47;;;;;;;8.70;8.07;;;33.00;1.00;;;;;;5013589;28;20058;-47
2022/06/02 12:54:40;;;;;;;8.70;7.75;;;32.60;1.00;;;;;;5016436;28;20558;-44
2022/06/02 12:57:38;;;;;;;7.95;7.22;;;36.20;1.00;;;;;;5015362;28;20045;-48
2022/06/02 13:00:19;;;;;;;7.72;7.03;;;38.20;1.00;;;;;;5037243;28;20076;-47
2022/06/02 13:03:06;;;;;;;7.88;7.18;;;39.20;1.00;;;;;;5015263;28;20468;-45
2022/06/02 13:05:51;;;;;;;7.68;7.00;;;38.90;1.00;;;;;;5016584;28;20034;-45
2022/06/02 13:08:44;;;;;;;8.13;7.55;;;37.50;1.00;;;;;;5011584;28;20042;-45
2022/06/02 13:11:47;;;;;;;10.18;9.25;;;36.30;1.00;;;;;;5014330;28;20049;-45
2022/06/02 13:14:28;;;;;;;9.80;8.93;;;35.90;1.00;;;;;;5014450;28;20370;-52
2022/06/02 13:17:22;;;;;;;7.45;6.85;;;35.50;1.00;;;;;;5015048;28;20465;-46
2022/06/02 13:20:17;;;;;;;7.65;6.70;;;36.20;1.00;;;;;;5015965;28;20472;-50
2022/06/02 13:23:08;;;;;;;7.18;6.78;;;36.40;1.00;;;;;;4946795;28;20035;-49
2022/06/02 13:25:57;;;;;;;7.68;6.93;;;36.20;1.00;;;;;;5015522;28;20022;-49
2022/06/02 13:28:50;;;;;;;8.57;7.78;;;36.20;1.00;;;;;;5012862;28;20046;-52
2022/06/02 13:31:40;;;;;;;9.27;8.07;;;35.60;1.00;;;;;;5006023;28;20052;-52
2022/06/02 13:34:32;;;;;;;8.00;7.32;;;35.10;1.00;;;;;;5015015;28;20029;-49
2022/06/02 13:37:16;;;;;;;7.88;7.38;;;35.50;1.00;;;;;;5003700;28;20033;-48
2022/06/02 13:39:48;;;;;;;8.48;7.78;;;34.90;1.00;;;;;;5015691;28;20021;-49
2022/06/02 13:42:42;;;;;;;8.30;7.50;;;34.70;1.00;;;;;;5014568;28;20145;-46
2022/06/02 13:45:19;;;;;;;7.30;6.78;;;34.40;1.00;;;;;;5015943;28;20038;-46
2022/06/02 13:48:01;;;;;;;8.43;7.63;;;35.00;1.00;;;;;;5006844;28;20053;-47
2022/06/02 13:51:04;;;;;;;8.70;7.82;;;35.30;1.00;;;;;;5015773;28;20384;-46
2022/06/02 13:59:35;;;;;;;7.93;7.40;;;34.70;1.00;;;;;;5015390;28;20061;-44
2022/06/02 14:02:39;;;;;;;8.25;7.07;;;35.10;1.00;;;;;;5014070;28;20075;-47
2022/06/02 14:05:23;;;;;;;8.20;7.55;;;35.70;1.00;;;;;;5008597;28;20022;-45
2022/06/02 14:08:17;;;;;;;7.70;7.10;;;36.10;1.00;;;;;;5014125;28;20049;-48
2022/06/02 14:11:09;;;;;;;7.43;6.68;;;37.40;1.00;;;;;;5014329;28;20037;-44
2022/06/02 14:13:37;;;;;;;7.60;6.90;;;38.30;1.00;;;;;;4997717;28;20417;-45
2022/06/02 14:16:21;;;;;;;7.65;6.93;;;39.00;1.00;;;;;;5008397;28;20715;-46
2022/06/02 14:18:53;;;;;;;7.72;7.03;;;38.40;1.00;;;;;;5013998;28;20046;-49
2022/06/02 14:21:47;;;;;;;7.18;6.57;;;37.60;1.00;;;;;;5010325;28;20038;-48
2022/06/02 14:24:22;;;;;;;6.47;6.07;;;37.00;1.00;;;;;;5001357;28;20047;-46
2022/06/02 14:26:51;;;;;;;6.88;6.20;;;36.30;1.00;;;;;;5010422;28;20743;-49
2022/06/02 14:29:40;;;;;;;7.05;6.55;;;36.30;1.00;;;;;;5010264;28;20041;-44
2022/06/02 14:32:19;;;;;;;6.93;6.43;;;36.30;1.00;;;;;;5008291;28;20026;-45
2022/06/02 14:35:12;;;;;;;7.10;6.50;;;36.20;1.00;;;;;;5007595;28;20026;-46
2022/06/02 14:38:01;;;;;;;7.05;6.55;;;36.10;1.00;;;;;;5012830;28;20476;-45
2022/06/02 14:40:37;;;;;;;7.55;6.97;;;36.20;1.00;;;;;;5004176;28;20027;-44
2022/06/02 14:43:18;;;;;;;8.02;7.40;;;36.50;1.00;;;;;;5006445;28;20034;-46
2022/06/02 14:45:55;;;;;;;7.35;6.65;;;36.80;1.00;;;;;;5003982;28;20792;-45
2022/06/02 14:48:35;;;;;;;7.03;6.47;;;36.90;1.00;;;;;;5011163;28;20549;-47
2022/06/02 14:51:32;;;;;;;6.70;6.20;;;36.70;1.00;;;;;;5014357;28;20030;-46